Time;durP1;ratioP1;P1;durP2;ratioP2;P2;SDS_P1;SDS_P2;PMS_P1;PMS_P2;Temp;Humidity;BMP_temperature;BMP_pressure;BME280_temperature;BME280_humidity;BME280_pressure;Samples;Min_cycle;Max_cycle;Signal;HPM_P1;HPM_P2
2022/02/01 00:00:29;;;;;;;13.75;4.10;;;;;;;0.94;100.00;99956.20;1669311;83;21004;-81
2022/02/01 00:02:56;;;;;;;13.28;4.97;;;;;;;0.87;100.00;99961.55;1666137;83;21456;-81
2022/02/01 00:05:34;;;;;;;13.20;4.65;;;;;;;0.82;100.00;99960.05;1666034;83;21531;-81
2022/02/01 00:08:08;;;;;;;13.93;3.87;;;;;;;0.79;100.00;99966.29;1666094;83;21022;-81
2022/02/01 00:10:40;;;;;;;11.93;4.10;;;;;;;0.73;100.00;99956.01;1669650;83;21073;-81
2022/02/01 00:34:51;;;;;;;13.45;4.35;;;;;;;0.47;100.00;99987.92;1669598;83;21492;-81
2022/02/01 00:37:01;;;;;;;12.13;4.85;;;;;;;0.48;100.00;99973.66;1666367;83;21081;-81
2022/02/01 00:39:31;;;;;;;14.87;5.25;;;;;;;0.47;100.00;99978.64;1666070;83;22270;-80
2022/02/01 00:41:53;;;;;;;14.40;5.10;;;;;;;0.45;100.00;99967.75;1666123;83;21045;-81
2022/02/01 00:44:20;;;;;;;22.25;6.20;;;;;;;0.46;100.00;99969.88;1669455;83;20972;-81
2022/02/01 00:46:47;;;;;;;18.75;6.35;;;;;;;0.48;100.00;99965.72;1669553;83;21082;-81
2022/02/01 00:49:14;;;;;;;20.25;7.20;;;;;;;0.48;100.00;99972.34;1669713;83;21092;-81
2022/02/01 00:51:40;;;;;;;28.25;8.83;;;;;;;0.48;100.00;99968.36;1669900;83;21814;-81
2022/02/01 00:54:06;;;;;;;26.02;8.00;;;;;;;0.45;100.00;99971.73;1669551;83;21579;-80
2022/02/01 00:56:32;;;;;;;25.48;8.93;;;;;;;0.45;100.00;99974.89;1669484;83;21502;-81
2022/02/01 00:58:58;;;;;;;32.23;7.87;;;;;;;0.44;100.00;99975.41;1669760;83;20879;-81
2022/02/01 01:01:24;;;;;;;24.50;8.15;;;;;;;0.46;100.00;99972.53;1669532;83;21003;-81
2022/02/01 01:03:49;;;;;;;27.50;8.33;;;;;;;0.44;100.00;99986.02;1669506;83;21982;-81
2022/02/01 01:06:16;;;;;;;24.30;6.72;;;;;;;0.47;100.00;99986.08;1669657;83;20990;-81
2022/02/01 01:08:43;;;;;;;23.38;6.60;;;;;;;0.51;100.00;99994.45;1669610;83;21063;-81
2022/02/01 01:11:11;;;;;;;23.65;6.25;;;;;;;0.52;100.00;99994.23;1669716;83;21034;-81
2022/02/01 01:54:14;;;;;;;32.67;7.55;;;;;;;0.57;100.00;100022.27;1671906;83;21571;-81
2022/02/01 01:56:40;;;;;;;22.60;7.37;;;;;;;0.58;100.00;100026.53;1679488;83;21563;-81
2022/02/01 01:59:09;;;;;;;34.78;9.15;;;;;;;0.58;100.00;100025.20;1669625;83;22142;-81
2022/02/01 02:01:36;;;;;;;31.37;8.18;;;;;;;0.59;100.00;100031.31;1669599;83;21089;-81
2022/02/01 02:04:04;;;;;;;19.82;7.00;;;;;;;0.62;100.00;100037.56;1669591;83;21010;-81
2022/02/01 02:06:31;;;;;;;18.80;5.83;;;;;;;0.63;100.00;100041.31;1669527;83;21097;-81
2022/02/01 02:09:01;;;;;;;17.55;5.65;;;;;;;0.67;100.00;100049.66;1669585;83;21179;-81
2022/02/01 02:11:37;;;;;;;15.30;4.47;;;;;;;0.68;100.00;100039.38;1669457;83;20991;-81
2022/02/01 02:16:52;;;;;;;15.13;4.05;;;;;;;0.71;100.00;100040.77;1669234;83;21051;-81
2022/02/01 02:19:20;;;;;;;13.85;3.85;;;;;;;0.72;100.00;100035.27;1669631;83;21034;-81
2022/02/01 02:21:52;;;;;;;12.80;4.08;;;;;;;0.74;100.00;100037.73;1669500;83;21163;-81
2022/02/01 02:24:20;;;;;;;13.98;3.55;;;;;;;0.75;100.00;100040.16;1669946;83;21015;-81
2022/02/01 02:29:15;;;;;;;10.58;3.70;;;;;;;0.79;100.00;100051.95;1659129;84;21094;-81
2022/02/01 02:31:41;;;;;;;13.35;3.47;;;;;;;0.80;100.00;100054.94;1662990;84;21088;-81
2022/02/01 02:34:12;;;;;;;14.38;3.90;;;;;;;0.81;100.00;100055.74;1663069;84;21172;-81
2022/02/01 02:36:45;;;;;;;10.65;3.62;;;;;;;0.82;100.00;100051.54;1665034;84;21128;-81
2022/02/01 02:47:22;;;;;;;12.05;3.95;;;;;;;0.84;100.00;100067.26;1696886;83;21085;-81
2022/02/01 02:49:48;;;;;;;11.75;4.17;;;;;;;0.86;100.00;100077.16;1696855;83;21061;-81
2022/02/01 02:52:14;;;;;;;13.18;4.50;;;;;;;0.84;100.00;100073.38;1696929;83;21625;-81
2022/02/01 02:54:41;;;;;;;17.12;4.80;;;;;;;0.84;100.00;100071.23;1697075;83;21092;-81
2022/02/01 02:57:08;;;;;;;19.60;5.42;;;;;;;0.85;100.00;100068.88;1697131;83;21072;-81
2022/02/01 02:59:36;;;;;;;21.75;6.78;;;;;;;0.83;100.00;100075.73;1696683;83;21952;-81
2022/02/01 03:02:04;;;;;;;24.27;7.12;;;;;;;0.82;100.00;100071.43;1697104;83;21062;-81
2022/02/01 03:04:33;;;;;;;25.05;8.10;;;;;;;0.82;100.00;100070.11;1696899;83;21124;-82
2022/02/01 03:07:00;;;;;;;22.17;7.37;;;;;;;0.81;100.00;100079.61;1685487;83;21033;-81
2022/02/01 03:09:27;;;;;;;18.98;7.45;;;;;;;0.78;100.00;100084.01;1693320;83;21045;-81
2022/02/01 03:11:58;;;;;;;29.35;8.58;;;;;;;0.74;100.00;100088.11;1697217;83;21147;-82
2022/02/01 03:14:27;;;;;;;28.27;8.93;;;;;;;0.72;100.00;100085.65;1696771;83;21171;-81
2022/02/01 03:19:52;;;;;;;28.90;8.90;;;;;;;0.68;100.00;100084.45;1636540;87;21103;-81
2022/02/01 03:22:26;;;;;;;28.85;9.03;;;;;;;0.67;100.00;100093.41;1636515;86;21027;-81
2022/02/01 03:24:55;;;;;;;25.08;8.98;;;;;;;0.67;100.00;100096.05;1637776;87;21120;-81
2022/02/01 03:27:22;;;;;;;27.90;9.28;;;;;;;0.67;100.00;100107.98;1637474;87;21058;-81
2022/02/01 03:29:49;;;;;;;28.15;9.55;;;;;;;0.67;100.00;100111.45;1637645;87;21454;-81
2022/02/01 03:32:16;;;;;;;34.85;10.38;;;;;;;0.66;100.00;100114.32;1632654;87;21157;-81
2022/02/01 03:34:42;;;;;;;38.70;10.68;;;;;;;0.66;100.00;100112.48;1622244;88;21051;-81
2022/02/01 03:37:08;;;;;;;29.50;10.08;;;;;;;0.65;100.00;100114.84;1620914;87;21159;-81
2022/02/01 03:39:34;;;;;;;39.08;10.60;;;;;;;0.64;100.00;100118.49;1617356;88;21047;-81
2022/02/01 03:42:01;;;;;;;35.88;10.93;;;;;;;0.62;100.00;100123.20;1617167;88;21016;-81
2022/02/01 03:44:29;;;;;;;37.65;10.60;;;;;;;0.61;100.00;100120.23;1617241;88;21570;-81
2022/02/01 03:49:22;;;;;;;28.92;9.58;;;;;;;0.56;100.00;100132.47;1564699;91;21069;-81
2022/02/01 03:51:48;;;;;;;40.65;11.48;;;;;;;0.55;100.00;100136.16;1565245;90;20997;-81
2022/02/01 03:54:14;;;;;;;33.67;10.35;;;;;;;0.56;100.00;100137.29;1565355;91;20947;-80
2022/02/01 03:56:40;;;;;;;33.05;9.88;;;;;;;0.55;100.00;100131.66;1544857;92;20977;-81
2022/02/01 03:59:06;;;;;;;32.53;10.32;;;;;;;0.55;100.00;100133.50;1545250;92;21281;-81
2022/02/01 04:01:32;;;;;;;35.95;10.88;;;;;;;0.55;100.00;100134.83;1520302;94;21226;-81
2022/02/01 04:03:57;;;;;;;31.48;10.70;;;;;;;0.55;100.00;100139.61;1543776;92;21755;-81
2022/02/01 04:06:23;;;;;;;36.45;11.80;;;;;;;0.55;100.00;100142.27;1534250;93;21382;-80
2022/02/01 04:08:49;;;;;;;43.68;11.97;;;;;;;0.54;100.00;100144.63;1520576;94;20910;-81
2022/02/01 04:11:15;;;;;;;33.40;11.15;;;;;;;0.55;100.00;100147.56;1543642;92;21032;-81
2022/02/01 04:13:42;;;;;;;42.13;10.88;;;;;;;0.56;100.00;100147.89;1534507;93;22051;-80
2022/02/01 04:16:08;;;;;;;37.48;10.65;;;;;;;0.56;100.00;100153.20;1543944;90;21611;-81
2022/02/01 04:18:34;;;;;;;35.30;9.88;;;;;;;0.56;100.00;100157.66;1571477;89;21110;-81
2022/02/01 04:21:00;;;;;;;32.40;11.40;;;;;;;0.56;100.00;100154.52;1550835;91;20996;-80
2022/02/01 04:23:26;;;;;;;30.17;10.20;;;;;;;0.57;100.00;100155.33;1596553;89;21042;-80
2022/02/01 04:25:51;;;;;;;38.67;10.78;;;;;;;0.57;100.00;100156.66;1627801;86;21116;-81
2022/02/01 04:28:17;;;;;;;33.23;11.22;;;;;;;0.58;100.00;100161.73;1677276;83;21711;-80
2022/02/01 04:30:44;;;;;;;32.15;10.15;;;;;;;0.59;100.00;100163.39;1676941;84;20902;-80
2022/02/01 05:33:43;;;;;;;36.73;10.72;;;;;;;0.81;100.00;100240.87;1709606;82;21008;-81
2022/02/01 05:36:09;;;;;;;42.88;11.50;;;;;;;0.81;100.00;100243.53;1711103;81;20999;-81
2022/02/01 05:38:36;;;;;;;38.02;12.30;;;;;;;0.85;100.00;100239.47;1710558;81;21085;-81
2022/02/01 05:41:04;;;;;;;33.00;10.13;;;;;;;0.88;100.00;100244.84;1710844;82;21022;-81
2022/02/01 05:43:30;;;;;;;50.50;13.28;;;;;;;0.92;100.00;100246.60;1710943;82;21046;-81
2022/02/01 05:45:59;;;;;;;39.08;11.45;;;;;;;0.95;100.00;100247.00;1710899;83;21026;-81
2022/02/01 05:48:25;;;;;;;38.00;10.55;;;;;;;1.00;100.00;100250.34;1711028;83;20988;-81
2022/02/01 05:50:54;;;;;;;37.03;10.05;;;;;;;1.02;100.00;100258.92;1711169;83;21893;-81
2022/02/01 05:53:21;;;;;;;43.68;11.43;;;;;;;1.06;100.00;100265.44;1711093;83;21023;-82
2022/02/01 05:55:48;;;;;;;41.50;11.53;;;;;;;1.12;100.00;100262.00;1705887;83;21137;-81
2022/02/01 08:29:56;;;;;;;39.75;13.43;;;;;;;12.56;49.63;100371.09;1711754;82;21291;-82
2022/02/01 08:32:28;;;;;;;48.08;14.78;;;;;;;11.73;49.72;100372.40;1614376;87;21132;-83
2022/02/01 08:35:05;;;;;;;38.13;12.88;;;;;;;10.82;50.39;100377.25;1575508;90;21103;-83
2022/02/01 08:37:40;;;;;;;30.52;10.68;;;;;;;10.32;51.77;100378.17;1570288;89;21145;-82
2022/02/01 08:40:09;;;;;;;29.27;10.30;;;;;;;9.94;51.54;100383.34;1539367;91;21718;-83
2022/02/01 08:45:09;;;;;;;34.25;11.68;;;;;;;9.01;51.97;100391.26;1564700;91;21095;-83
2022/02/01 08:47:35;;;;;;;31.87;9.45;;;;;;;8.75;52.46;100393.41;1564794;91;21123;-83
2022/02/01 08:50:07;;;;;;;29.18;8.73;;;;;;;8.50;52.51;100393.92;1564891;91;20942;-83
2022/02/01 08:52:46;;;;;;;23.38;8.23;;;;;;;8.32;52.81;100386.97;1564387;91;21215;-83
2022/02/01 08:58:07;;;;;;;21.37;7.22;;;;;;;7.91;53.02;100383.74;1486955;96;21062;-83
2022/02/01 09:00:41;;;;;;;27.52;9.60;;;;;;;7.81;53.29;100387.64;1487223;95;21088;-82
2022/02/01 09:03:13;;;;;;;26.90;7.47;;;;;;;7.79;53.94;100383.84;1493190;96;21160;-83
2022/02/01 09:05:51;;;;;;;26.90;9.00;;;;;;;7.63;53.73;100384.16;1453411;97;21109;-82
2022/02/01 09:08:19;;;;;;;38.30;12.43;;;;;;;7.50;54.75;100389.87;1453222;98;21327;-83
2022/02/01 09:14:55;;;;;;;;;;;;;;;;;;;;;
2022/02/01 09:17:20;;;;;;;43.58;13.95;;;;;;;6.97;57.11;100375.86;1338580;107;21566;-84
2022/02/01 09:19:57;;;;;;;49.95;15.55;;;;;;;7.01;60.22;100373.52;1360051;103;21289;-84
2022/02/01 09:22:33;;;;;;;49.08;14.33;;;;;;;7.28;61.47;100361.63;1389448;103;21223;-84
2022/02/01 09:28:10;;;;;;;41.85;12.93;;;;;;;7.51;57.99;100369.50;1292097;111;21332;-84
2022/02/01 09:30:52;;;;;;;42.62;12.85;;;;;;;7.63;57.97;100360.02;1309690;108;21259;-84
2022/02/01 09:33:19;;;;;;;41.90;13.68;;;;;;;7.62;58.54;100354.39;1304607;108;21092;-84
2022/02/01 09:35:51;;;;;;;38.85;12.88;;;;;;;7.57;57.49;100374.42;1307443;109;22102;-84
2022/02/01 09:48:28;;;;;;;38.25;11.90;;;;;;;7.57;56.20;100370.39;1234600;114;21237;-84
2022/02/01 09:56:23;;;;;;;;;;;;;;;;;;;;;
2022/02/01 09:59:41;;;;;;;32.95;10.72;;;;;;;8.06;55.70;100365.19;1224629;113;21754;-86
2022/02/01 10:02:24;;;;;;;33.98;10.72;;;;;;;8.10;54.36;100366.30;1231179;113;21225;-84
2022/02/01 10:20:55;;;;;;;26.48;9.43;;;;;;;7.37;53.18;100341.40;1272794;111;21238;-84
2022/02/01 10:23:44;;;;;;;;;;;;;;;;;;;;;
2022/02/01 10:28:20;;;;;;;28.15;10.48;;;;;;;6.85;53.60;100334.11;;;;
2022/02/01 10:30:55;;;;;;;36.13;10.15;;;;;;;6.70;54.71;100333.31;1218501;115;21338;-83
2022/02/01 10:39:09;;;;;;;30.40;7.85;;;;;;;6.34;55.72;100330.78;1208191;115;21243;-84
2022/02/01 10:42:03;;;;;;;29.63;7.60;;;;;;;6.31;54.98;100328.58;1191903;118;21259;-84
2022/02/01 10:44:54;;;;;;;23.10;8.18;;;;;;;6.06;55.09;100310.17;1209944;116;21341;-84
2022/02/01 10:47:55;;;;;;;29.95;7.90;;;;;;;6.15;56.01;100329.34;1228307;114;22192;-83
2022/02/01 10:53:25;;;;;;;25.20;8.63;;;;;;;6.16;56.71;100326.14;1222435;115;21259;-85
2022/02/01 10:55:59;;;;;;;27.20;7.87;;;;;;;6.18;57.75;100324.86;1217599;116;21267;-84
2022/02/01 10:58:33;;;;;;;26.82;8.30;;;;;;;6.26;58.20;100329.81;1255834;110;21296;-83
2022/02/01 11:01:11;;;;;;;26.77;6.97;;;;;;;6.35;58.12;100323.56;1256760;111;22059;-84
2022/02/01 11:04:03;;;;;;;;;;;;;;;;;;;;;
2022/02/01 11:16:23;;;;;;;21.20;5.92;;;;;;;6.27;58.50;100322.09;1214736;115;21684;-82
2022/02/01 11:34:33;;;;;;;;;;;;;;;;;;;;;
2022/02/01 11:37:10;;;;;;;17.12;5.58;;;;;;;5.94;56.36;100317.92;1174144;119;21310;-83
2022/02/01 11:45:49;;;;;;;19.45;6.50;;;;;;;6.21;57.55;100325.72;1188871;119;21259;-83
2022/02/01 11:48:31;;;;;;;;;;;;;;;;;;;;;
2022/02/01 11:51:16;;;;;;;24.25;8.40;;;;;;;6.39;59.27;100326.06;1193599;117;21257;-85
2022/02/01 11:57:55;;;;;;;17.23;5.90;;;;;;;6.31;60.20;100323.23;1201515;117;21601;-83
2022/02/01 12:16:11;;;;;;;;;;;;;;;;;;;;;
2022/02/01 12:19:14;;;;;;;;;;;;;;;;;;;;;
2022/02/01 13:01:06;;;;;;;37.13;10.08;;;;;;;5.72;91.26;100340.43;1255058;110;21256;-83
2022/02/01 13:21:54;;;;;;;25.85;6.92;;;;;;;5.08;87.17;100346.95;1304493;107;21161;-84
2022/02/01 13:28:13;;;;;;;20.25;6.67;;;;;;;4.87;88.00;100356.31;1263857;112;21263;-83
2022/02/01 13:30:47;;;;;;;20.43;7.10;;;;;;;4.70;88.86;100352.94;1275574;110;21230;-83
2022/02/01 13:40:41;;;;;;;26.85;7.95;;;;;;;4.49;91.44;100359.59;1265272;110;22194;-83
2022/02/01 13:43:22;;;;;;;19.30;7.67;;;;;;;4.37;92.48;100360.05;1270003;112;21218;-83
2022/02/01 13:45:51;;;;;;;26.25;8.43;;;;;;;4.33;92.41;100359.70;1296273;107;21114;-83
2022/02/01 14:01:46;;;;;;;22.50;7.80;;;;;;;3.90;93.53;100339.79;1224973;114;22127;-85
2022/02/01 14:36:55;;;;;;;31.87;10.10;;;;;;;2.48;100.00;100390.05;1267000;111;22005;-85
2022/02/01 14:46:00;;;;;;;;;;;;;;;;;;;;;
2022/02/01 14:48:38;;;;;;;;;;;;;;;;;;;;;
2022/02/01 15:17:45;;;;;;;65.40;16.80;;;;;;;0.98;100.00;100391.17;1235142;115;21151;-84
2022/02/01 15:20:14;;;;;;;55.73;15.83;;;;;;;0.99;100.00;100419.84;1222342;115;21343;-86
2022/02/01 15:22:41;;;;;;;55.67;17.30;;;;;;;0.87;100.00;100420.43;1257614;110;21283;-85
2022/02/01 15:25:41;;;;;;;70.50;19.85;;;;;;;0.84;100.00;100419.50;1258005;111;21698;-86
2022/02/01 15:28:28;;;;;;;;;;;;;;;;;;;;;
2022/02/01 15:57:32;;;;;;;63.58;19.40;;;;;;;0.42;100.00;100467.80;1153180;124;21654;-86
2022/02/01 15:59:56;;;;;;;66.85;22.07;;;;;;;0.42;100.00;100467.80;1157423;121;21178;-87
2022/02/01 16:02:27;;;;;;;63.73;20.82;;;;;;;0.42;100.00;100471.77;1171549;120;21298;-87
2022/02/01 16:04:55;;;;;;;65.70;19.15;;;;;;;0.42;100.00;100462.49;1202298;114;21607;-86
2022/02/01 16:07:21;;;;;;;60.88;18.48;;;;;;;0.40;100.00;100466.34;1200985;118;21872;-86
2022/02/01 16:10:01;;;;;;;62.88;19.60;;;;;;;0.40;100.00;100465.84;1217181;113;21237;-86
2022/02/01 16:12:20;;;;;;;58.40;18.62;;;;;;;0.41;100.00;100466.17;1254631;112;21231;-86
2022/02/01 16:14:47;;;;;;;55.95;16.82;;;;;;;0.43;100.00;100460.66;1254702;113;21290;-86
2022/02/01 16:17:13;;;;;;;51.40;17.37;;;;;;;0.44;100.00;100471.56;1307455;105;21071;-86
2022/02/01 16:19:39;;;;;;;58.20;16.40;;;;;;;0.44;100.00;100465.78;1358724;103;21207;-86
2022/02/01 16:22:05;;;;;;;57.70;18.30;;;;;;;0.44;100.00;100468.42;1361388;104;21256;-86
2022/02/01 16:24:35;;;;;;;55.80;17.30;;;;;;;0.46;100.00;100469.54;1368315;103;21258;-87
2022/02/01 16:27:03;;;;;;;49.83;16.23;;;;;;;0.47;100.00;100474.33;1423503;95;21182;-87
2022/02/01 16:29:29;;;;;;;52.17;15.70;;;;;;;0.49;100.00;100466.49;1477147;94;21541;-87
2022/02/01 16:31:55;;;;;;;54.73;15.43;;;;;;;0.51;100.00;100462.33;1448221;97;21623;-87
2022/02/01 16:34:23;;;;;;;44.05;15.10;;;;;;;0.51;100.00;100461.82;1448018;97;21186;-87
2022/02/01 16:36:49;;;;;;;46.48;15.15;;;;;;;0.51;100.00;100458.36;1426496;99;21240;-86
2022/02/01 16:39:16;;;;;;;47.00;14.93;;;;;;;0.50;100.00;100458.03;1447945;97;21197;-87
2022/02/01 16:41:46;;;;;;;54.42;15.68;;;;;;;0.46;100.00;100466.89;1450350;97;21112;-86
2022/02/01 16:44:16;;;;;;;51.83;16.02;;;;;;;0.43;100.00;100460.14;1471736;95;21294;-87
2022/02/01 16:46:43;;;;;;;41.95;13.75;;;;;;;0.43;100.00;100465.44;1428814;98;21182;-87
2022/02/01 16:49:11;;;;;;;43.13;13.90;;;;;;;0.42;100.00;100470.45;1435214;97;21596;-86
2022/02/01 16:51:39;;;;;;;38.90;12.65;;;;;;;0.40;100.00;100468.48;1452311;97;21453;-87
2022/02/01 16:54:09;;;;;;;40.98;12.98;;;;;;;0.40;100.00;100470.33;1452712;97;21614;-86
2022/02/01 16:59:19;;;;;;;54.30;17.55;;;;;;;0.36;100.00;100471.23;1451509;97;21183;-87
2022/02/01 17:01:41;;;;;;;66.72;21.95;;;;;;;0.36;100.00;100471.74;1469101;94;21150;-87
2022/02/01 17:04:08;;;;;;;64.25;19.45;;;;;;;0.36;100.00;100468.58;1483652;94;21159;-87
2022/02/01 17:06:34;;;;;;;81.80;22.30;;;;;;;0.37;100.00;100468.88;1484674;94;21662;-86
2022/02/01 17:09:02;;;;;;;61.10;19.20;;;;;;;0.39;100.00;100470.02;1462477;95;21157;-84
2022/02/01 17:11:42;;;;;;;67.37;21.97;;;;;;;0.37;100.00;100464.91;1480602;95;21237;-87
2022/02/01 17:14:25;;;;;;;64.90;19.37;;;;;;;0.36;100.00;100461.95;1478827;95;21224;-87
2022/02/01 17:21:58;;;;;;;66.65;21.17;;;;;;;0.34;100.00;100459.19;1481657;94;22217;-86
2022/02/01 17:24:25;;;;;;;81.40;22.13;;;;;;;0.31;100.00;100453.77;1481523;94;21135;-86
2022/02/01 17:26:54;;;;;;;85.05;24.60;;;;;;;0.32;100.00;100451.41;1481398;94;21217;-86
2022/02/01 17:29:20;;;;;;;104.07;26.50;;;;;;;0.35;100.00;100452.34;1480886;95;21193;-86
2022/02/01 17:31:48;;;;;;;90.77;25.52;;;;;;;0.37;100.00;100447.68;1465579;94;21106;-86
2022/02/01 17:34:14;;;;;;;81.30;24.47;;;;;;;0.38;100.00;100448.48;1467545;96;21160;-87
2022/02/01 17:36:40;;;;;;;87.00;25.17;;;;;;;0.38;100.00;100449.81;1466501;97;21156;-85
2022/02/01 17:39:08;;;;;;;79.07;21.87;;;;;;;0.41;100.00;100452.91;1466268;97;22130;-86
2022/02/01 17:41:35;;;;;;;75.62;22.55;;;;;;;0.43;100.00;100454.03;1468652;97;21202;-86
2022/02/01 17:44:04;;;;;;;74.80;23.22;;;;;;;0.44;100.00;100455.66;1487467;95;21184;-86
2022/02/01 17:49:02;;;;;;;52.73;19.62;;;;;;;0.45;100.00;100458.13;1454246;97;21155;-86
2022/02/01 17:51:36;;;;;;;56.63;20.20;;;;;;;0.40;100.00;100457.89;1469158;96;21189;-86
2022/02/01 17:54:14;;;;;;;55.12;18.45;;;;;;;0.45;100.00;100455.98;1469323;96;21214;-86
2022/02/01 17:56:33;;;;;;;51.05;18.52;;;;;;;0.48;100.00;100452.12;1475655;96;21201;-86
2022/02/01 17:59:00;;;;;;;62.48;19.37;;;;;;;0.49;100.00;100455.89;1479067;94;21099;-85
2022/02/01 18:01:26;;;;;;;53.92;17.70;;;;;;;0.48;100.00;100454.78;1478819;96;21613;-85
2022/02/01 18:03:52;;;;;;;51.73;17.17;;;;;;;0.46;100.00;100456.28;1463841;95;21170;-85
2022/02/01 18:06:18;;;;;;;50.88;17.98;;;;;;;0.47;100.00;100449.95;1464231;96;21233;-86
2022/02/01 18:08:50;;;;;;;53.87;17.75;;;;;;;0.48;100.00;100448.96;1446556;97;21121;-86
2022/02/01 18:11:13;;;;;;;58.60;19.62;;;;;;;0.48;100.00;100446.83;1463741;96;21225;-86
2022/02/01 18:13:47;;;;;;;66.80;22.25;;;;;;;0.50;100.00;100456.70;1444364;97;21169;-86
2022/02/01 18:16:11;;;;;;;73.40;23.18;;;;;;;0.50;100.00;100456.70;1472576;95;21120;-85
2022/02/01 18:18:41;;;;;;;73.12;23.77;;;;;;;0.48;100.00;100454.27;1463952;96;21514;-86
2022/02/01 18:21:15;;;;;;;78.15;26.80;;;;;;;0.45;100.00;100453.34;1445215;97;21007;-86
2022/02/01 18:23:43;;;;;;;64.22;21.35;;;;;;;0.46;100.00;100452.30;1483735;94;21130;-85
2022/02/01 18:26:11;;;;;;;68.92;22.13;;;;;;;0.45;100.00;100456.80;1485254;96;21151;-86
2022/02/01 18:28:39;;;;;;;86.40;26.52;;;;;;;0.47;100.00;100463.72;1485167;96;21084;-86
2022/02/01 18:31:07;;;;;;;69.77;22.58;;;;;;;0.48;100.00;100462.22;1509852;92;21185;-86
2022/02/01 18:33:38;;;;;;;58.50;19.95;;;;;;;0.50;100.00;100466.83;1555117;92;21130;-86
2022/02/01 18:36:08;;;;;;;62.75;19.87;;;;;;;0.50;100.00;100467.30;1555106;92;21658;-86
2022/02/01 18:38:39;;;;;;;70.62;21.23;;;;;;;0.48;100.00;100465.38;1555481;92;21661;-85
2022/02/01 18:41:07;;;;;;;64.82;22.00;;;;;;;0.51;100.00;100467.64;1554990;92;21123;-85
2022/02/01 18:46:12;;;;;;;62.95;21.07;;;;;;;0.57;100.00;100468.17;1527305;93;21020;-86
2022/02/01 18:48:46;;;;;;;66.50;21.75;;;;;;;0.54;100.00;100468.56;1523491;91;21128;-86
2022/02/01 19:12:14;;;;;;;58.33;21.52;;;;;;;0.62;100.00;100456.48;1371007;103;21364;-88
2022/02/01 19:14:41;;;;;;;62.60;20.25;;;;;;;0.62;100.00;100448.52;1371233;103;21142;-88
2022/02/01 19:17:08;;;;;;;66.75;22.00;;;;;;;0.66;100.00;100455.05;1370958;103;21190;-87
2022/02/01 19:19:35;;;;;;;58.73;21.23;;;;;;;0.70;100.00;100457.61;1371074;103;21201;-88
2022/02/01 19:22:01;;;;;;;61.45;22.13;;;;;;;0.72;100.00;100451.61;1371025;103;21678;-88
2022/02/01 19:24:30;;;;;;;69.05;23.00;;;;;;;0.70;100.00;100460.77;1371059;103;21143;-88
2022/02/01 19:26:55;;;;;;;65.45;21.17;;;;;;;0.71;100.00;100463.23;1370798;103;21166;-88
2022/02/01 19:29:23;;;;;;;119.47;32.67;;;;;;;0.74;100.00;100467.33;1371012;103;21173;-88
2022/02/01 19:31:54;;;;;;;72.17;24.85;;;;;;;0.77;100.00;100462.95;1371079;103;21206;-87
2022/02/01 19:34:30;;;;;;;86.82;28.02;;;;;;;0.77;100.00;100462.44;1371002;103;21338;-88
2022/02/01 19:36:57;;;;;;;98.35;32.13;;;;;;;0.73;100.00;100466.48;1371106;103;21195;-88
2022/02/01 19:39:28;;;;;;;102.82;31.02;;;;;;;0.75;100.00;100461.00;1360293;103;21420;-88
2022/02/01 19:41:58;;;;;;;94.70;31.77;;;;;;;0.76;100.00;100458.13;1354946;105;21177;-87
2022/02/01 19:47:02;;;;;;;106.22;34.50;;;;;;;0.83;100.00;100464.30;1361217;103;21841;-88
2022/02/01 19:49:25;;;;;;;111.88;34.98;;;;;;;0.85;100.00;100467.58;1435454;99;21147;-88
2022/02/01 19:51:54;;;;;;;115.50;36.95;;;;;;;0.86;100.00;100465.73;1449303;98;21139;-87
2022/02/01 19:54:21;;;;;;;136.70;39.53;;;;;;;0.89;100.00;100470.13;1464129;98;21098;-88
2022/02/01 19:56:48;;;;;;;109.67;34.43;;;;;;;0.93;100.00;100465.75;1524929;93;21094;-88
2022/02/01 19:59:18;;;;;;;106.17;33.58;;;;;;;0.92;100.00;100472.09;1533235;93;21788;-88
2022/02/01 20:01:48;;;;;;;117.47;36.45;;;;;;;0.89;100.00;100467.48;1533243;93;21544;-88
2022/02/01 20:04:18;;;;;;;118.67;36.10;;;;;;;0.90;100.00;100464.31;1527215;93;21169;-88
2022/02/01 20:06:50;;;;;;;118.00;36.05;;;;;;;0.92;100.00;100464.13;1522184;93;21141;-88
2022/02/01 20:09:24;;;;;;;104.23;33.35;;;;;;;0.92;100.00;100466.78;1532487;93;21058;-87
2022/02/01 20:11:52;;;;;;;112.32;36.35;;;;;;;0.94;100.00;100471.36;1532256;93;21393;-88
2022/02/01 20:14:18;;;;;;;116.00;35.25;;;;;;;0.94;100.00;100462.88;1531938;93;21084;-88
2022/02/01 20:16:47;;;;;;;110.75;34.03;;;;;;;0.99;100.00;100471.07;1532489;93;21164;-88
2022/02/01 20:19:13;;;;;;;97.17;31.62;;;;;;;1.00;100.00;100470.55;1532305;92;21185;-88
2022/02/01 20:21:42;;;;;;;95.70;31.75;;;;;;;1.02;100.00;100469.86;1532455;93;21711;-88
2022/02/01 20:24:09;;;;;;;103.40;33.30;;;;;;;1.02;100.00;100476.48;1532258;93;21127;-87
2022/02/01 20:26:45;;;;;;;104.35;32.45;;;;;;;1.02;100.00;100477.81;1532371;93;21089;-89
2022/02/01 20:29:11;;;;;;;92.82;30.37;;;;;;;1.02;100.00;100474.64;1532289;92;21101;-88
2022/02/01 20:31:38;;;;;;;101.92;31.45;;;;;;;1.05;100.00;100478.74;1532299;93;21633;-87
2022/02/01 20:34:09;;;;;;;87.97;29.63;;;;;;;1.05;100.00;100483.53;1532663;93;21108;-87
2022/02/01 20:36:37;;;;;;;82.65;28.07;;;;;;;1.06;100.00;100485.67;1532216;91;21634;-87
2022/02/01 20:39:08;;;;;;;95.42;30.88;;;;;;;1.08;100.00;100492.94;1532229;93;21082;-87
2022/02/01 20:41:31;;;;;;;87.10;29.57;;;;;;;1.10;100.00;100493.56;1532289;93;21104;-86
2022/02/01 20:43:57;;;;;;;85.47;29.23;;;;;;;1.10;100.00;100497.03;1532413;91;21069;-86
2022/02/01 20:46:23;;;;;;;84.90;28.65;;;;;;;1.11;100.00;100492.53;1532167;92;21029;-86
2022/02/01 20:48:50;;;;;;;93.37;29.50;;;;;;;1.10;100.00;100492.23;1532117;93;21594;-87
2022/02/01 20:51:16;;;;;;;90.40;29.40;;;;;;;1.10;100.00;100498.87;1532238;92;21061;-87
2022/02/01 20:53:44;;;;;;;80.10;27.52;;;;;;;1.09;100.00;100497.24;1532106;93;21156;-86
2022/02/01 20:56:11;;;;;;;87.53;28.60;;;;;;;1.11;100.00;100497.33;1532255;93;21582;-86
2022/02/01 20:58:38;;;;;;;77.30;25.80;;;;;;;1.08;100.00;100497.73;1532347;93;21104;-86
2022/02/01 21:01:07;;;;;;;78.55;25.32;;;;;;;1.07;100.00;100493.96;1532114;91;21184;-86
2022/02/01 21:03:34;;;;;;;76.67;24.72;;;;;;;1.08;100.00;100492.94;1548467;91;21051;-86
2022/02/01 21:06:00;;;;;;;69.55;25.08;;;;;;;1.08;100.00;100490.28;1568649;90;21094;-86
2022/02/01 21:08:26;;;;;;;73.50;25.23;;;;;;;1.06;100.00;100487.84;1568578;91;21070;-87
2022/02/01 21:10:52;;;;;;;74.37;25.27;;;;;;;1.06;100.00;100487.00;1568724;91;20996;-87
2022/02/01 21:13:18;;;;;;;71.57;24.05;;;;;;;1.06;100.00;100481.69;1568531;90;21932;-86
2022/02/01 21:15:46;;;;;;;72.72;25.65;;;;;;;1.04;100.00;100487.22;1568327;90;21617;-87
2022/02/01 21:18:13;;;;;;;72.50;23.92;;;;;;;1.00;100.00;100483.82;1572235;91;21104;-86
2022/02/01 21:20:40;;;;;;;87.40;28.95;;;;;;;0.99;100.00;100480.87;1572222;91;21595;-87
2022/02/01 21:23:07;;;;;;;76.35;25.70;;;;;;;0.98;100.00;100476.59;1572462;91;21114;-86
2022/02/01 21:25:33;;;;;;;70.80;25.08;;;;;;;0.93;100.00;100476.36;1572445;91;21146;-86
2022/02/01 21:27:59;;;;;;;69.50;24.75;;;;;;;0.86;100.00;100478.48;1572313;91;21122;-87
2022/02/01 21:30:26;;;;;;;64.97;23.87;;;;;;;0.87;100.00;100474.00;1572102;91;21090;-87
2022/02/01 21:32:52;;;;;;;80.83;26.27;;;;;;;0.88;100.00;100474.30;1572017;89;21065;-87
2022/02/01 21:35:18;;;;;;;77.70;26.60;;;;;;;0.88;100.00;100476.95;1572383;89;21601;-87
2022/02/01 21:37:45;;;;;;;81.08;25.92;;;;;;;0.87;100.00;100473.48;1572491;91;21090;-87
2022/02/01 21:40:12;;;;;;;79.22;26.70;;;;;;;0.85;100.00;100464.92;1572567;91;21046;-86
2022/02/01 21:42:42;;;;;;;73.83;24.98;;;;;;;0.85;100.00;100458.30;1572234;91;21085;-87
2022/02/01 21:45:07;;;;;;;78.45;25.02;;;;;;;0.86;100.00;100460.44;1573019;91;21116;-87
2022/02/01 21:47:35;;;;;;;72.72;24.87;;;;;;;0.84;100.00;100459.80;1576684;91;21165;-87